sensor_id;sensor_type;location;lat;lon;timestamp;P1;durP1;ratioP1;P2;durP2;ratioP2
21721;SDS011;11023;48.274;7.794;2022-12-18T00:01:18;69.72;;;27.15;;
21721;SDS011;11023;48.274;7.794;2022-12-18T00:03:46;71.13;;;26.83;;
21721;SDS011;11023;48.274;7.794;2022-12-18T00:06:11;65.03;;;28.00;;
21721;SDS011;11023;48.274;7.794;2022-12-18T00:08:38;70.20;;;28.67;;
21721;SDS011;11023;48.274;7.794;2022-12-18T00:11:06;74.82;;;29.33;;
21721;SDS011;11023;48.274;7.794;2022-12-18T00:13:33;63.90;;;27.02;;
21721;SDS011;11023;48.274;7.794;2022-12-18T00:16:03;69.88;;;27.17;;
21721;SDS011;11023;48.274;7.794;2022-12-18T00:18:32;75.53;;;28.83;;
21721;SDS011;11023;48.274;7.794;2022-12-18T00:20:59;74.93;;;29.08;;
21721;SDS011;11023;48.274;7.794;2022-12-18T00:23:31;70.65;;;28.02;;
21721;SDS011;11023;48.274;7.794;2022-12-18T00:26:01;75.20;;;29.25;;
21721;SDS011;11023;48.274;7.794;2022-12-18T00:28:29;66.82;;;27.08;;
21721;SDS011;11023;48.274;7.794;2022-12-18T00:31:02;74.55;;;27.83;;
21721;SDS011;11023;48.274;7.794;2022-12-18T00:33:28;70.22;;;26.75;;
21721;SDS011;11023;48.274;7.794;2022-12-18T00:36:05;70.93;;;28.27;;
21721;SDS011;11023;48.274;7.794;2022-12-18T00:38:36;72.28;;;28.33;;
21721;SDS011;11023;48.274;7.794;2022-12-18T00:41:02;69.40;;;26.98;;
21721;SDS011;11023;48.274;7.794;2022-12-18T00:43:30;72.70;;;27.17;;
21721;SDS011;11023;48.274;7.794;2022-12-18T00:45:59;65.53;;;25.80;;
21721;SDS011;11023;48.274;7.794;2022-12-18T00:48:25;73.90;;;27.77;;
21721;SDS011;11023;48.274;7.794;2022-12-18T00:50:50;63.45;;;26.38;;
21721;SDS011;11023;48.274;7.794;2022-12-18T00:53:17;67.38;;;26.67;;
21721;SDS011;11023;48.274;7.794;2022-12-18T00:55:43;66.25;;;26.38;;
21721;SDS011;11023;48.274;7.794;2022-12-18T00:58:09;71.10;;;27.67;;
21721;SDS011;11023;48.274;7.794;2022-12-18T01:00:37;83.50;;;28.58;;
21721;SDS011;11023;48.274;7.794;2022-12-18T01:03:03;72.60;;;26.73;;
21721;SDS011;11023;48.274;7.794;2022-12-18T01:05:30;67.30;;;26.55;;
21721;SDS011;11023;48.274;7.794;2022-12-18T01:07:56;72.78;;;28.25;;
21721;SDS011;11023;48.274;7.794;2022-12-18T01:10:22;69.45;;;26.83;;
21721;SDS011;11023;48.274;7.794;2022-12-18T01:12:49;70.35;;;28.45;;
21721;SDS011;11023;48.274;7.794;2022-12-18T01:15:15;73.88;;;27.27;;
21721;SDS011;11023;48.274;7.794;2022-12-18T01:17:43;68.30;;;28.42;;
21721;SDS011;11023;48.274;7.794;2022-12-18T01:20:09;70.38;;;25.77;;
21721;SDS011;11023;48.274;7.794;2022-12-18T01:22:36;71.63;;;26.50;;
21721;SDS011;11023;48.274;7.794;2022-12-18T01:25:03;67.35;;;26.95;;
21721;SDS011;11023;48.274;7.794;2022-12-18T01:27:29;67.03;;;27.95;;
21721;SDS011;11023;48.274;7.794;2022-12-18T01:29:55;67.63;;;26.65;;
21721;SDS011;11023;48.274;7.794;2022-12-18T01:32:21;67.60;;;25.80;;
21721;SDS011;11023;48.274;7.794;2022-12-18T01:34:47;71.88;;;28.38;;
21721;SDS011;11023;48.274;7.794;2022-12-18T01:37:13;66.68;;;26.77;;
21721;SDS011;11023;48.274;7.794;2022-12-18T01:39:39;73.43;;;27.67;;
21721;SDS011;11023;48.274;7.794;2022-12-18T01:42:12;69.65;;;27.17;;
21721;SDS011;11023;48.274;7.794;2022-12-18T01:44:55;66.82;;;26.95;;
21721;SDS011;11023;48.274;7.794;2022-12-18T01:50:15;73.03;;;26.58;;
21721;SDS011;11023;48.274;7.794;2022-12-18T01:52:50;65.63;;;26.00;;
21721;SDS011;11023;48.274;7.794;2022-12-18T01:55:19;72.38;;;27.58;;
21721;SDS011;11023;48.274;7.794;2022-12-18T01:57:49;66.18;;;26.42;;
21721;SDS011;11023;48.274;7.794;2022-12-18T02:00:19;66.75;;;27.10;;
21721;SDS011;11023;48.274;7.794;2022-12-18T02:02:47;74.03;;;28.10;;
21721;SDS011;11023;48.274;7.794;2022-12-18T02:05:16;66.95;;;27.17;;
21721;SDS011;11023;48.274;7.794;2022-12-18T02:13:43;67.53;;;27.30;;
21721;SDS011;11023;48.274;7.794;2022-12-18T02:18:56;75.15;;;27.05;;
21721;SDS011;11023;48.274;7.794;2022-12-18T02:23:56;66.43;;;26.83;;
21721;SDS011;11023;48.274;7.794;2022-12-18T02:26:43;75.10;;;26.60;;
21721;SDS011;11023;48.274;7.794;2022-12-18T02:29:16;71.35;;;27.23;;
21721;SDS011;11023;48.274;7.794;2022-12-18T02:31:51;77.30;;;28.02;;
21721;SDS011;11023;48.274;7.794;2022-12-18T02:34:19;69.07;;;26.25;;
21721;SDS011;11023;48.274;7.794;2022-12-18T02:36:49;75.20;;;27.95;;
21721;SDS011;11023;48.274;7.794;2022-12-18T02:39:16;72.55;;;27.83;;
21721;SDS011;11023;48.274;7.794;2022-12-18T02:41:42;70.07;;;26.10;;
21721;SDS011;11023;48.274;7.794;2022-12-18T02:44:10;72.93;;;27.40;;
21721;SDS011;11023;48.274;7.794;2022-12-18T02:46:38;72.30;;;27.40;;
21721;SDS011;11023;48.274;7.794;2022-12-18T02:51:53;75.38;;;27.70;;
21721;SDS011;11023;48.274;7.794;2022-12-18T02:54:37;70.72;;;27.67;;
21721;SDS011;11023;48.274;7.794;2022-12-18T03:00:19;64.38;;;25.00;;
21721;SDS011;11023;48.274;7.794;2022-12-18T03:02:47;68.28;;;27.00;;
21721;SDS011;11023;48.274;7.794;2022-12-18T03:05:31;68.18;;;26.50;;
21721;SDS011;11023;48.274;7.794;2022-12-18T03:10:31;58.50;;;23.98;;
21721;SDS011;11023;48.274;7.794;2022-12-18T03:13:02;63.35;;;24.77;;
21721;SDS011;11023;48.274;7.794;2022-12-18T03:15:33;64.93;;;25.92;;
21721;SDS011;11023;48.274;7.794;2022-12-18T03:18:03;64.72;;;25.02;;
21721;SDS011;11023;48.274;7.794;2022-12-18T03:20:34;63.63;;;25.42;;
21721;SDS011;11023;48.274;7.794;2022-12-18T03:23:06;64.60;;;25.92;;
21721;SDS011;11023;48.274;7.794;2022-12-18T03:25:39;60.80;;;24.98;;
21721;SDS011;11023;48.274;7.794;2022-12-18T03:28:09;72.63;;;27.23;;
21721;SDS011;11023;48.274;7.794;2022-12-18T03:30:39;65.20;;;25.27;;
21721;SDS011;11023;48.274;7.794;2022-12-18T03:33:09;64.50;;;25.73;;
21721;SDS011;11023;48.274;7.794;2022-12-18T03:35:41;63.22;;;26.00;;
21721;SDS011;11023;48.274;7.794;2022-12-18T03:38:08;65.28;;;25.38;;
21721;SDS011;11023;48.274;7.794;2022-12-18T03:40:50;69.70;;;26.83;;
21721;SDS011;11023;48.274;7.794;2022-12-18T03:47:08;68.70;;;25.83;;
21721;SDS011;11023;48.274;7.794;2022-12-18T03:49:35;59.00;;;23.80;;
21721;SDS011;11023;48.274;7.794;2022-12-18T03:52:32;62.72;;;24.40;;
21721;SDS011;11023;48.274;7.794;2022-12-18T03:55:00;63.50;;;25.60;;
21721;SDS011;11023;48.274;7.794;2022-12-18T03:57:30;63.30;;;25.50;;
21721;SDS011;11023;48.274;7.794;2022-12-18T03:59:58;64.55;;;24.98;;
21721;SDS011;11023;48.274;7.794;2022-12-18T04:02:29;69.55;;;26.40;;
21721;SDS011;11023;48.274;7.794;2022-12-18T04:04:56;68.93;;;26.65;;
21721;SDS011;11023;48.274;7.794;2022-12-18T04:07:25;69.40;;;25.10;;
21721;SDS011;11023;48.274;7.794;2022-12-18T04:09:52;67.47;;;25.17;;
21721;SDS011;11023;48.274;7.794;2022-12-18T04:12:23;71.13;;;26.95;;
21721;SDS011;11023;48.274;7.794;2022-12-18T04:14:51;64.03;;;25.02;;
21721;SDS011;11023;48.274;7.794;2022-12-18T04:17:17;69.10;;;25.05;;
21721;SDS011;11023;48.274;7.794;2022-12-18T04:19:43;62.28;;;25.52;;
21721;SDS011;11023;48.274;7.794;2022-12-18T04:22:10;66.53;;;25.25;;
21721;SDS011;11023;48.274;7.794;2022-12-18T04:24:36;64.95;;;24.52;;
21721;SDS011;11023;48.274;7.794;2022-12-18T04:27:02;69.30;;;26.38;;
21721;SDS011;11023;48.274;7.794;2022-12-18T04:29:28;68.85;;;25.45;;
21721;SDS011;11023;48.274;7.794;2022-12-18T04:31:54;67.70;;;26.45;;
21721;SDS011;11023;48.274;7.794;2022-12-18T04:34:20;64.18;;;23.73;;
21721;SDS011;11023;48.274;7.794;2022-12-18T04:36:46;68.25;;;25.67;;
21721;SDS011;11023;48.274;7.794;2022-12-18T04:39:13;61.60;;;23.40;;
21721;SDS011;11023;48.274;7.794;2022-12-18T04:41:39;65.05;;;25.38;;
21721;SDS011;11023;48.274;7.794;2022-12-18T04:44:06;68.28;;;25.30;;
21721;SDS011;11023;48.274;7.794;2022-12-18T04:46:32;67.85;;;25.50;;
21721;SDS011;11023;48.274;7.794;2022-12-18T04:48:57;63.70;;;24.38;;
21721;SDS011;11023;48.274;7.794;2022-12-18T04:51:23;61.42;;;23.83;;
21721;SDS011;11023;48.274;7.794;2022-12-18T04:53:49;62.97;;;23.73;;
21721;SDS011;11023;48.274;7.794;2022-12-18T04:56:15;61.22;;;24.35;;
21721;SDS011;11023;48.274;7.794;2022-12-18T04:58:42;57.05;;;22.58;;
21721;SDS011;11023;48.274;7.794;2022-12-18T05:01:09;60.47;;;23.38;;
21721;SDS011;11023;48.274;7.794;2022-12-18T05:03:37;60.17;;;24.52;;
21721;SDS011;11023;48.274;7.794;2022-12-18T05:06:05;57.72;;;22.52;;
21721;SDS011;11023;48.274;7.794;2022-12-18T05:08:32;65.03;;;22.40;;
21721;SDS011;11023;48.274;7.794;2022-12-18T05:11:19;57.08;;;22.73;;
21721;SDS011;11023;48.274;7.794;2022-12-18T05:13:44;59.15;;;22.70;;
21721;SDS011;11023;48.274;7.794;2022-12-18T05:16:11;56.58;;;22.17;;
21721;SDS011;11023;48.274;7.794;2022-12-18T05:18:37;60.85;;;22.80;;
21721;SDS011;11023;48.274;7.794;2022-12-18T05:21:03;51.33;;;21.80;;
21721;SDS011;11023;48.274;7.794;2022-12-18T05:23:30;57.70;;;22.63;;
21721;SDS011;11023;48.274;7.794;2022-12-18T05:28:25;54.53;;;21.23;;
21721;SDS011;11023;48.274;7.794;2022-12-18T05:30:54;53.38;;;21.67;;
21721;SDS011;11023;48.274;7.794;2022-12-18T05:33:21;60.28;;;22.15;;
21721;SDS011;11023;48.274;7.794;2022-12-18T05:35:51;57.58;;;22.10;;
21721;SDS011;11023;48.274;7.794;2022-12-18T05:38:21;52.90;;;21.95;;
21721;SDS011;11023;48.274;7.794;2022-12-18T05:40:48;60.58;;;22.70;;
21721;SDS011;11023;48.274;7.794;2022-12-18T05:43:15;60.85;;;23.70;;
21721;SDS011;11023;48.274;7.794;2022-12-18T05:45:42;50.95;;;21.13;;
21721;SDS011;11023;48.274;7.794;2022-12-18T05:48:08;53.13;;;22.05;;
21721;SDS011;11023;48.274;7.794;2022-12-18T05:50:35;52.40;;;21.70;;
21721;SDS011;11023;48.274;7.794;2022-12-18T05:53:02;52.97;;;21.58;;
21721;SDS011;11023;48.274;7.794;2022-12-18T05:55:28;57.55;;;23.73;;
21721;SDS011;11023;48.274;7.794;2022-12-18T05:57:57;65.95;;;24.60;;
21721;SDS011;11023;48.274;7.794;2022-12-18T06:00:24;54.03;;;22.90;;
21721;SDS011;11023;48.274;7.794;2022-12-18T06:02:49;53.92;;;22.17;;
21721;SDS011;11023;48.274;7.794;2022-12-18T06:05:16;51.25;;;20.83;;
21721;SDS011;11023;48.274;7.794;2022-12-18T06:07:42;55.55;;;22.13;;
21721;SDS011;11023;48.274;7.794;2022-12-18T06:10:08;49.35;;;20.77;;
21721;SDS011;11023;48.274;7.794;2022-12-18T06:12:34;59.35;;;21.77;;
21721;SDS011;11023;48.274;7.794;2022-12-18T06:15:00;52.33;;;21.33;;
21721;SDS011;11023;48.274;7.794;2022-12-18T06:17:29;51.90;;;21.10;;
21721;SDS011;11023;48.274;7.794;2022-12-18T06:19:55;59.85;;;21.77;;
21721;SDS011;11023;48.274;7.794;2022-12-18T06:22:21;50.50;;;20.80;;
21721;SDS011;11023;48.274;7.794;2022-12-18T06:24:47;49.92;;;20.55;;
21721;SDS011;11023;48.274;7.794;2022-12-18T06:27:13;51.67;;;21.25;;
21721;SDS011;11023;48.274;7.794;2022-12-18T06:29:39;55.33;;;21.80;;
21721;SDS011;11023;48.274;7.794;2022-12-18T06:32:05;54.78;;;20.98;;
21721;SDS011;11023;48.274;7.794;2022-12-18T06:34:31;46.78;;;20.02;;
21721;SDS011;11023;48.274;7.794;2022-12-18T06:36:58;50.78;;;20.27;;
21721;SDS011;11023;48.274;7.794;2022-12-18T06:39:24;50.53;;;20.77;;
21721;SDS011;11023;48.274;7.794;2022-12-18T06:41:52;48.65;;;19.73;;
21721;SDS011;11023;48.274;7.794;2022-12-18T06:44:18;46.33;;;20.25;;
21721;SDS011;11023;48.274;7.794;2022-12-18T06:46:44;54.85;;;20.98;;
21721;SDS011;11023;48.274;7.794;2022-12-18T06:49:10;47.42;;;18.42;;
21721;SDS011;11023;48.274;7.794;2022-12-18T06:51:36;48.17;;;20.65;;
21721;SDS011;11023;48.274;7.794;2022-12-18T06:54:02;48.55;;;20.40;;
21721;SDS011;11023;48.274;7.794;2022-12-18T06:56:28;55.70;;;21.40;;
21721;SDS011;11023;48.274;7.794;2022-12-18T06:58:53;51.72;;;20.60;;
21721;SDS011;11023;48.274;7.794;2022-12-18T07:01:20;48.03;;;20.65;;
21721;SDS011;11023;48.274;7.794;2022-12-18T07:03:46;51.00;;;20.45;;
21721;SDS011;11023;48.274;7.794;2022-12-18T07:06:16;57.45;;;22.15;;
21721;SDS011;11023;48.274;7.794;2022-12-18T07:08:44;55.35;;;21.17;;
21721;SDS011;11023;48.274;7.794;2022-12-18T07:11:12;55.78;;;20.95;;
21721;SDS011;11023;48.274;7.794;2022-12-18T07:13:38;53.97;;;22.00;;
21721;SDS011;11023;48.274;7.794;2022-12-18T07:16:05;51.95;;;21.77;;
21721;SDS011;11023;48.274;7.794;2022-12-18T07:18:34;53.25;;;21.63;;
21721;SDS011;11023;48.274;7.794;2022-12-18T07:21:04;51.10;;;21.40;;
21721;SDS011;11023;48.274;7.794;2022-12-18T07:23:32;54.33;;;21.95;;
21721;SDS011;11023;48.274;7.794;2022-12-18T07:26:06;49.60;;;20.30;;
21721;SDS011;11023;48.274;7.794;2022-12-18T07:28:36;59.78;;;22.17;;
21721;SDS011;11023;48.274;7.794;2022-12-18T07:31:05;54.95;;;21.50;;
21721;SDS011;11023;48.274;7.794;2022-12-18T07:33:31;51.80;;;21.42;;
21721;SDS011;11023;48.274;7.794;2022-12-18T07:36:02;59.65;;;22.45;;
21721;SDS011;11023;48.274;7.794;2022-12-18T07:38:30;62.35;;;22.95;;
21721;SDS011;11023;48.274;7.794;2022-12-18T07:41:00;64.95;;;21.88;;
21721;SDS011;11023;48.274;7.794;2022-12-18T07:43:27;49.63;;;21.10;;
21721;SDS011;11023;48.274;7.794;2022-12-18T07:45:52;61.63;;;21.40;;
21721;SDS011;11023;48.274;7.794;2022-12-18T07:48:18;68.78;;;23.10;;
21721;SDS011;11023;48.274;7.794;2022-12-18T07:50:43;58.95;;;21.95;;
21721;SDS011;11023;48.274;7.794;2022-12-18T07:53:09;55.60;;;21.85;;
21721;SDS011;11023;48.274;7.794;2022-12-18T07:55:35;54.00;;;22.13;;
21721;SDS011;11023;48.274;7.794;2022-12-18T07:58:02;57.97;;;23.02;;
21721;SDS011;11023;48.274;7.794;2022-12-18T08:00:30;62.03;;;23.83;;
21721;SDS011;11023;48.274;7.794;2022-12-18T08:02:57;60.42;;;21.27;;
21721;SDS011;11023;48.274;7.794;2022-12-18T08:05:23;52.60;;;21.05;;
21721;SDS011;11023;48.274;7.794;2022-12-18T08:07:50;54.97;;;21.48;;
21721;SDS011;11023;48.274;7.794;2022-12-18T08:10:16;54.85;;;21.80;;
21721;SDS011;11023;48.274;7.794;2022-12-18T08:12:41;51.70;;;19.33;;
21721;SDS011;11023;48.274;7.794;2022-12-18T08:15:09;47.80;;;19.42;;
21721;SDS011;11023;48.274;7.794;2022-12-18T08:17:35;47.22;;;19.05;;
21721;SDS011;11023;48.274;7.794;2022-12-18T08:20:00;55.17;;;18.20;;
21721;SDS011;11023;48.274;7.794;2022-12-18T08:22:26;43.25;;;18.02;;
21721;SDS011;11023;48.274;7.794;2022-12-18T08:24:52;42.40;;;18.35;;
21721;SDS011;11023;48.274;7.794;2022-12-18T08:27:18;42.38;;;18.70;;
21721;SDS011;11023;48.274;7.794;2022-12-18T08:29:45;43.10;;;18.05;;
21721;SDS011;11023;48.274;7.794;2022-12-18T08:32:12;46.10;;;16.00;;
21721;SDS011;11023;48.274;7.794;2022-12-18T08:34:37;44.92;;;18.88;;
21721;SDS011;11023;48.274;7.794;2022-12-18T08:37:03;43.17;;;18.33;;
21721;SDS011;11023;48.274;7.794;2022-12-18T08:39:30;42.05;;;18.60;;
21721;SDS011;11023;48.274;7.794;2022-12-18T08:41:55;41.72;;;17.65;;
21721;SDS011;11023;48.274;7.794;2022-12-18T08:44:40;39.05;;;17.83;;
21721;SDS011;11023;48.274;7.794;2022-12-18T08:47:08;43.40;;;18.75;;
21721;SDS011;11023;48.274;7.794;2022-12-18T08:49:34;43.53;;;19.67;;
21721;SDS011;11023;48.274;7.794;2022-12-18T08:52:00;42.78;;;19.05;;
21721;SDS011;11023;48.274;7.794;2022-12-18T08:54:28;45.65;;;19.55;;
21721;SDS011;11023;48.274;7.794;2022-12-18T08:56:54;41.78;;;18.63;;
21721;SDS011;11023;48.274;7.794;2022-12-18T08:59:19;38.35;;;16.55;;
21721;SDS011;11023;48.274;7.794;2022-12-18T09:01:46;34.20;;;17.40;;
21721;SDS011;11023;48.274;7.794;2022-12-18T09:04:12;32.95;;;16.23;;
21721;SDS011;11023;48.274;7.794;2022-12-18T09:06:39;38.53;;;16.10;;
21721;SDS011;11023;48.274;7.794;2022-12-18T09:09:05;37.13;;;17.77;;
21721;SDS011;11023;48.274;7.794;2022-12-18T09:11:31;37.13;;;16.63;;
21721;SDS011;11023;48.274;7.794;2022-12-18T09:13:58;72.70;;;16.98;;
21721;SDS011;11023;48.274;7.794;2022-12-18T09:16:27;50.55;;;18.38;;
21721;SDS011;11023;48.274;7.794;2022-12-18T09:18:57;52.35;;;17.63;;
21721;SDS011;11023;48.274;7.794;2022-12-18T09:21:35;41.25;;;18.35;;
21721;SDS011;11023;48.274;7.794;2022-12-18T09:24:01;41.90;;;17.73;;
21721;SDS011;11023;48.274;7.794;2022-12-18T09:26:27;36.47;;;17.08;;
21721;SDS011;11023;48.274;7.794;2022-12-18T09:28:53;37.80;;;17.42;;
21721;SDS011;11023;48.274;7.794;2022-12-18T09:31:20;39.95;;;17.50;;
21721;SDS011;11023;48.274;7.794;2022-12-18T09:33:47;43.67;;;18.55;;
21721;SDS011;11023;48.274;7.794;2022-12-18T09:36:14;38.38;;;17.75;;
21721;SDS011;11023;48.274;7.794;2022-12-18T09:38:41;36.10;;;17.52;;
21721;SDS011;11023;48.274;7.794;2022-12-18T09:41:17;40.08;;;17.35;;
21721;SDS011;11023;48.274;7.794;2022-12-18T09:44:02;42.72;;;18.58;;
21721;SDS011;11023;48.274;7.794;2022-12-18T09:46:41;39.88;;;18.00;;
21721;SDS011;11023;48.274;7.794;2022-12-18T09:49:12;42.88;;;18.35;;
21721;SDS011;11023;48.274;7.794;2022-12-18T09:51:54;45.03;;;19.40;;
21721;SDS011;11023;48.274;7.794;2022-12-18T09:54:39;47.50;;;20.17;;
21721;SDS011;11023;48.274;7.794;2022-12-18T09:57:09;49.90;;;20.25;;
21721;SDS011;11023;48.274;7.794;2022-12-18T09:59:50;46.97;;;21.02;;
21721;SDS011;11023;48.274;7.794;2022-12-18T10:02:25;48.90;;;21.60;;
21721;SDS011;11023;48.274;7.794;2022-12-18T10:05:09;49.03;;;21.92;;
21721;SDS011;11023;48.274;7.794;2022-12-18T10:10:57;50.33;;;22.25;;
21721;SDS011;11023;48.274;7.794;2022-12-18T10:13:41;46.63;;;21.55;;
21721;SDS011;11023;48.274;7.794;2022-12-18T10:16:19;47.67;;;21.90;;
21721;SDS011;11023;48.274;7.794;2022-12-18T10:22:34;50.30;;;21.80;;
21721;SDS011;11023;48.274;7.794;2022-12-18T10:25:01;45.28;;;20.70;;
21721;SDS011;11023;48.274;7.794;2022-12-18T10:27:31;45.67;;;20.08;;
21721;SDS011;11023;48.274;7.794;2022-12-18T10:29:57;50.13;;;21.83;;
21721;SDS011;11023;48.274;7.794;2022-12-18T10:32:24;44.03;;;21.25;;
21721;SDS011;11023;48.274;7.794;2022-12-18T10:34:54;46.53;;;21.45;;
21721;SDS011;11023;48.274;7.794;2022-12-18T10:37:22;43.65;;;20.40;;
21721;SDS011;11023;48.274;7.794;2022-12-18T10:42:37;46.35;;;20.77;;
21721;SDS011;11023;48.274;7.794;2022-12-18T10:45:11;49.35;;;21.77;;
21721;SDS011;11023;48.274;7.794;2022-12-18T10:47:47;47.33;;;21.25;;
21721;SDS011;11023;48.274;7.794;2022-12-18T10:50:26;47.65;;;21.20;;
21721;SDS011;11023;48.274;7.794;2022-12-18T10:52:59;47.15;;;21.20;;
21721;SDS011;11023;48.274;7.794;2022-12-18T10:55:27;48.00;;;21.60;;
21721;SDS011;11023;48.274;7.794;2022-12-18T10:58:12;43.25;;;20.77;;
21721;SDS011;11023;48.274;7.794;2022-12-18T11:03:44;47.92;;;22.65;;
21721;SDS011;11023;48.274;7.794;2022-12-18T11:06:16;51.15;;;23.25;;
21721;SDS011;11023;48.274;7.794;2022-12-18T11:08:57;53.22;;;24.55;;
21721;SDS011;11023;48.274;7.794;2022-12-18T11:11:31;61.97;;;26.77;;
21721;SDS011;11023;48.274;7.794;2022-12-18T11:14:04;56.80;;;25.98;;
21721;SDS011;11023;48.274;7.794;2022-12-18T11:16:30;66.43;;;24.17;;
21721;SDS011;11023;48.274;7.794;2022-12-18T11:21:46;54.20;;;22.40;;
21721;SDS011;11023;48.274;7.794;2022-12-18T11:26:58;52.80;;;23.02;;
21721;SDS011;11023;48.274;7.794;2022-12-18T11:29:31;55.80;;;23.23;;
21721;SDS011;11023;48.274;7.794;2022-12-18T11:35:09;61.95;;;24.88;;
21721;SDS011;11023;48.274;7.794;2022-12-18T11:37:43;52.45;;;23.27;;
21721;SDS011;11023;48.274;7.794;2022-12-18T11:40:16;60.67;;;23.10;;
21721;SDS011;11023;48.274;7.794;2022-12-18T11:48:09;131.65;;;24.42;;
21721;SDS011;11023;48.274;7.794;2022-12-18T11:50:48;64.55;;;22.48;;
21721;SDS011;11023;48.274;7.794;2022-12-18T11:53:22;54.42;;;21.13;;
21721;SDS011;11023;48.274;7.794;2022-12-18T11:55:56;49.15;;;21.52;;
21721;SDS011;11023;48.274;7.794;2022-12-18T11:58:47;44.55;;;20.05;;
21721;SDS011;11023;48.274;7.794;2022-12-18T12:20:44;38.60;;;18.63;;
21721;SDS011;11023;48.274;7.794;2022-12-18T12:23:40;44.33;;;20.48;;
21721;SDS011;11023;48.274;7.794;2022-12-18T12:34:49;40.80;;;20.10;;
21721;SDS011;11023;48.274;7.794;2022-12-18T12:39:53;42.08;;;21.33;;
21721;SDS011;11023;48.274;7.794;2022-12-18T12:42:40;45.88;;;22.85;;
21721;SDS011;11023;48.274;7.794;2022-12-18T12:45:36;53.88;;;25.40;;
21721;SDS011;11023;48.274;7.794;2022-12-18T12:51:25;46.20;;;22.10;;
21721;SDS011;11023;48.274;7.794;2022-12-18T12:53:54;43.95;;;21.27;;
21721;SDS011;11023;48.274;7.794;2022-12-18T12:56:24;44.00;;;21.30;;
21721;SDS011;11023;48.274;7.794;2022-12-18T13:04:27;48.97;;;23.60;;
21721;SDS011;11023;48.274;7.794;2022-12-18T13:13:00;50.20;;;23.83;;
21721;SDS011;11023;48.274;7.794;2022-12-18T13:20:35;50.67;;;24.23;;
21721;SDS011;11023;48.274;7.794;2022-12-18T13:28:14;55.15;;;24.23;;
21721;SDS011;11023;48.274;7.794;2022-12-18T13:30:48;57.65;;;24.48;;
21721;SDS011;11023;48.274;7.794;2022-12-18T13:38:35;51.83;;;24.27;;
21721;SDS011;11023;48.274;7.794;2022-12-18T13:48:43;58.40;;;26.40;;
21721;SDS011;11023;48.274;7.794;2022-12-18T13:51:19;60.53;;;26.88;;
21721;SDS011;11023;48.274;7.794;2022-12-18T13:53:48;55.78;;;25.75;;
21721;SDS011;11023;48.274;7.794;2022-12-18T13:56:16;54.45;;;25.17;;
21721;SDS011;11023;48.274;7.794;2022-12-18T13:58:43;54.67;;;25.30;;
21721;SDS011;11023;48.274;7.794;2022-12-18T14:01:21;56.15;;;25.35;;
21721;SDS011;11023;48.274;7.794;2022-12-18T14:03:48;52.28;;;24.48;;
21721;SDS011;11023;48.274;7.794;2022-12-18T14:06:17;48.78;;;23.33;;
21721;SDS011;11023;48.274;7.794;2022-12-18T14:08:43;53.08;;;23.77;;
21721;SDS011;11023;48.274;7.794;2022-12-18T14:11:17;49.38;;;23.67;;
21721;SDS011;11023;48.274;7.794;2022-12-18T14:13:47;49.85;;;23.17;;
21721;SDS011;11023;48.274;7.794;2022-12-18T14:16:15;47.78;;;22.60;;
21721;SDS011;11023;48.274;7.794;2022-12-18T14:21:33;54.28;;;24.08;;
21721;SDS011;11023;48.274;7.794;2022-12-18T14:24:19;54.80;;;24.33;;
21721;SDS011;11023;48.274;7.794;2022-12-18T14:26:47;56.85;;;24.80;;
21721;SDS011;11023;48.274;7.794;2022-12-18T14:29:19;53.05;;;23.70;;
21721;SDS011;11023;48.274;7.794;2022-12-18T14:32:04;62.25;;;26.08;;
21721;SDS011;11023;48.274;7.794;2022-12-18T14:34:39;54.53;;;25.65;;
21721;SDS011;11023;48.274;7.794;2022-12-18T14:37:05;58.42;;;26.50;;
21721;SDS011;11023;48.274;7.794;2022-12-18T14:39:34;58.88;;;27.08;;
21721;SDS011;11023;48.274;7.794;2022-12-18T14:41:59;58.90;;;27.42;;
21721;SDS011;11023;48.274;7.794;2022-12-18T14:44:25;63.05;;;28.02;;
21721;SDS011;11023;48.274;7.794;2022-12-18T14:46:51;62.63;;;29.55;;
21721;SDS011;11023;48.274;7.794;2022-12-18T14:51:48;69.38;;;30.98;;
21721;SDS011;11023;48.274;7.794;2022-12-18T14:54:17;67.55;;;30.27;;
21721;SDS011;11023;48.274;7.794;2022-12-18T14:56:46;65.82;;;31.70;;
21721;SDS011;11023;48.274;7.794;2022-12-18T14:59:15;68.50;;;32.85;;
21721;SDS011;11023;48.274;7.794;2022-12-18T15:04:32;75.53;;;34.50;;
21721;SDS011;11023;48.274;7.794;2022-12-18T15:07:04;78.15;;;34.55;;
21721;SDS011;11023;48.274;7.794;2022-12-18T15:09:37;78.90;;;35.17;;
21721;SDS011;11023;48.274;7.794;2022-12-18T15:12:04;76.22;;;34.42;;
21721;SDS011;11023;48.274;7.794;2022-12-18T15:14:34;77.93;;;35.22;;
21721;SDS011;11023;48.274;7.794;2022-12-18T15:17:14;78.40;;;35.65;;
21721;SDS011;11023;48.274;7.794;2022-12-18T15:19:46;79.93;;;36.70;;
21721;SDS011;11023;48.274;7.794;2022-12-18T15:22:20;77.05;;;34.45;;
21721;SDS011;11023;48.274;7.794;2022-12-18T15:25:00;79.22;;;35.15;;
21721;SDS011;11023;48.274;7.794;2022-12-18T15:27:28;87.55;;;36.42;;
21721;SDS011;11023;48.274;7.794;2022-12-18T15:30:38;80.22;;;34.83;;
21721;SDS011;11023;48.274;7.794;2022-12-18T15:32:47;78.45;;;34.22;;
21721;SDS011;11023;48.274;7.794;2022-12-18T15:35:18;82.13;;;35.42;;
21721;SDS011;11023;48.274;7.794;2022-12-18T15:37:46;84.05;;;35.65;;
21721;SDS011;11023;48.274;7.794;2022-12-18T15:40:13;85.53;;;37.20;;
21721;SDS011;11023;48.274;7.794;2022-12-18T15:42:45;83.20;;;36.93;;
21721;SDS011;11023;48.274;7.794;2022-12-18T15:45:31;74.80;;;33.78;;
21721;SDS011;11023;48.274;7.794;2022-12-18T15:47:57;79.72;;;33.85;;
21721;SDS011;11023;48.274;7.794;2022-12-18T15:50:23;82.72;;;34.90;;
21721;SDS011;11023;48.274;7.794;2022-12-18T15:52:49;79.53;;;34.85;;
21721;SDS011;11023;48.274;7.794;2022-12-18T15:55:22;78.57;;;34.88;;
21721;SDS011;11023;48.274;7.794;2022-12-18T15:58:08;76.80;;;34.85;;
21721;SDS011;11023;48.274;7.794;2022-12-18T16:00:35;83.95;;;35.78;;
21721;SDS011;11023;48.274;7.794;2022-12-18T16:03:03;76.03;;;33.92;;
21721;SDS011;11023;48.274;7.794;2022-12-18T16:05:29;77.82;;;34.70;;
21721;SDS011;11023;48.274;7.794;2022-12-18T16:07:56;78.10;;;35.42;;
21721;SDS011;11023;48.274;7.794;2022-12-18T16:10:23;80.18;;;35.40;;
21721;SDS011;11023;48.274;7.794;2022-12-18T16:12:50;82.00;;;35.00;;
21721;SDS011;11023;48.274;7.794;2022-12-18T16:15:16;79.57;;;34.30;;
21721;SDS011;11023;48.274;7.794;2022-12-18T16:17:42;75.38;;;32.92;;
21721;SDS011;11023;48.274;7.794;2022-12-18T16:20:12;76.47;;;33.78;;
21721;SDS011;11023;48.274;7.794;2022-12-18T16:22:39;77.10;;;34.03;;
21721;SDS011;11023;48.274;7.794;2022-12-18T16:25:08;75.13;;;33.40;;
21721;SDS011;11023;48.274;7.794;2022-12-18T16:27:46;76.55;;;32.65;;
21721;SDS011;11023;48.274;7.794;2022-12-18T16:30:12;71.45;;;31.60;;
21721;SDS011;11023;48.274;7.794;2022-12-18T16:32:40;78.07;;;32.20;;
21721;SDS011;11023;48.274;7.794;2022-12-18T16:35:05;74.50;;;32.58;;
21721;SDS011;11023;48.274;7.794;2022-12-18T16:37:33;70.03;;;32.20;;
21721;SDS011;11023;48.274;7.794;2022-12-18T16:39:59;74.32;;;32.40;;
21721;SDS011;11023;48.274;7.794;2022-12-18T16:42:24;72.18;;;31.35;;
21721;SDS011;11023;48.274;7.794;2022-12-18T16:44:50;71.15;;;31.77;;
21721;SDS011;11023;48.274;7.794;2022-12-18T16:47:16;80.05;;;32.72;;